Language: 


Des rapports , des résumés tant et plus, au choix de chacun....


Données statistiques de la station
Quotidien Rapport Février 12, 2017 Unités:  Anglais    Métrique   les deux
« Précédent Jour
Suivant Jour »
Quotidien Hebdomadaire Mensuel Annuel Actuel
  Haut: Bas: Moyen:
Température: 43.5 °F 34 °F 38.3 °F
Pt de rosée: 42.1 °F 32.9 °F 37.2 °F
Humidité: 98 % 93 % 96 %
Vitesse du vent: 12.5 mph 0 mph 5.3 mph
Rafales: 14.8 mph - -
Vent:- - East
Pression: 30.2 in 30.1 in -
Précipitation: 0 in    
Historical Graphs
 
 
Données statistiques pour Février 12, 2017
Heure Température Point de rosée Pression Vent Vitesse du vent Refales Humidité Pluie (taux horaire)
00:02 34 °F 32.9 °F 30.1 in NNE 3.8 mph 3.8 mph 96 % 0 in
00:07 34 °F 32.9 °F 30.1 in Calm   3.8 mph 96 % 0 in
00:12 34.2 °F 33.1 °F 30.1 in North 4.9 mph 5.4 mph 96 % 0 in
00:17 34.2 °F 33.1 °F 30.1 in North 2.9 mph 5.4 mph 96 % 0 in
00:22 34.2 °F 33.1 °F 30.1 in North 2.5 mph 4.7 mph 96 % 0 in
00:27 34.2 °F 33.1 °F 30.1 in North 2.5 mph 4.3 mph 96 % 0 in
00:32 34.2 °F 33.1 °F 30.1 in NNW 2.9 mph 4.9 mph 96 % 0 in
00:37 34.2 °F 33.1 °F 30.1 in NNE 2.7 mph 4.9 mph 96 % 0 in
00:42 34.3 °F 33.3 °F 30.1 in North 3.8 mph 4.9 mph 96 % 0 in
00:47 34.3 °F 33.3 °F 30.1 in North 4.3 mph 4.9 mph 96 % 0 in
00:52 34.3 °F 33.4 °F 30.1 in NNE 2.2 mph 5.6 mph 97 % 0 in
00:57 34.3 °F 33.4 °F 30.1 in NNE 3.4 mph 5.6 mph 97 % 0 in
01:02 34.3 °F 33.4 °F 30.1 in North 1.3 mph 5.6 mph 97 % 0 in
01:07 34.3 °F 33.4 °F 30.1 in North 4.9 mph 5.6 mph 97 % 0 in
01:12 34.3 °F 33.4 °F 30.1 in NE 4.3 mph 5.8 mph 97 % 0 in
01:17 34.3 °F 33.4 °F 30.1 in NE 4.9 mph 5.8 mph 97 % 0 in
01:22 34.3 °F 33.4 °F 30.1 in NE 5.6 mph 6.3 mph 97 % 0 in
01:27 34.3 °F 33.4 °F 30.1 in NNE 4.3 mph 6.3 mph 97 % 0 in
01:32 34.3 °F 33.8 °F 30.1 in NNE 3.6 mph 6.5 mph 98 % 0 in
01:37 34.3 °F 33.8 °F 30.1 in NNE 2.5 mph 6.5 mph 98 % 0 in
01:42 34.3 °F 33.8 °F 30.1 in Calm   4.9 mph 98 % 0 in
01:47 34.3 °F 33.8 °F 30.1 in NNE 5.4 mph 5.4 mph 98 % 0 in
01:52 34.3 °F 33.8 °F 30.1 in NNW 2.5 mph 5.6 mph 98 % 0 in
01:57 34.3 °F 33.8 °F 30.1 in ENE 3.1 mph 5.6 mph 98 % 0 in
02:02 34.3 °F 33.8 °F 30.1 in North 3.4 mph 4 mph 98 % 0 in
02:07 34.5 °F 34 °F 30.1 in NNE 1.3 mph 4.3 mph 98 % 0 in
02:12 34.5 °F 34 °F 30.1 in NNE 3.1 mph 4.3 mph 98 % 0 in
02:18 34.5 °F 34 °F 30.1 in NE 2.5 mph 3.8 mph 98 % 0 in
02:23 34.5 °F 34 °F 30.1 in NE 2.7 mph 5.4 mph 98 % 0 in
02:28 34.5 °F 34 °F 30.1 in North 3.1 mph 5.4 mph 98 % 0 in
02:33 34.5 °F 34 °F 30.1 in NNE 4.9 mph 5.6 mph 98 % 0 in
02:38 34.5 °F 34 °F 30.1 in NE 4.9 mph 6 mph 98 % 0 in
02:43 34.5 °F 34.2 °F 30.1 in North 4 mph 6.3 mph 98 % 0 in
02:48 34.5 °F 34.2 °F 30.1 in NNE 6.3 mph 7.4 mph 98 % 0 in
02:53 34.5 °F 34.2 °F 30.1 in NE 2.9 mph 7.4 mph 98 % 0 in
02:58 34.9 °F 34.3 °F 30.1 in NE 3.8 mph 6.3 mph 98 % 0 in
03:03 34.9 °F 34.3 °F 30.1 in NE 2.7 mph 5.8 mph 98 % 0 in
03:08 34.9 °F 34.3 °F 30.1 in Calm   4.7 mph 98 % 0 in
03:13 34.9 °F 34.3 °F 30.1 in NE 2.5 mph 4.2 mph 98 % 0 in
03:18 34.9 °F 34.3 °F 30.1 in NE 4.3 mph 4.9 mph 98 % 0 in
03:23 35.1 °F 34.5 °F 30.1 in NNE 4.3 mph 4.9 mph 98 % 0 in
03:28 35.1 °F 34.5 °F 30.1 in NNE 4.3 mph 6.5 mph 98 % 0 in
03:33 35.1 °F 34.5 °F 30.1 in NNE 6.5 mph 6.5 mph 98 % 0 in
03:38 35.1 °F 34.5 °F 30.1 in NE 3.6 mph 6.5 mph 98 % 0 in
03:43 35.1 °F 34.5 °F 30.1 in NE 5.8 mph 6 mph 98 % 0 in
03:48 35.1 °F 34.5 °F 30.1 in NE 4.7 mph 5.8 mph 98 % 0 in
03:53 35.1 °F 34.5 °F 30.1 in NE 4.3 mph 6 mph 98 % 0 in
03:58 35.1 °F 34.5 °F 30.1 in NNE 4.9 mph 6.7 mph 98 % 0 in
04:03 35.1 °F 34.5 °F 30.1 in NE 3.6 mph 6.7 mph 98 % 0 in
04:08 35.1 °F 34.5 °F 30.1 in NE 4.3 mph 6.3 mph 98 % 0 in
04:13 35.1 °F 34.5 °F 30.1 in NE 5.6 mph 6.3 mph 98 % 0 in
04:18 35.1 °F 34.5 °F 30.1 in NE 5.8 mph 6.3 mph 98 % 0 in
04:23 35.2 °F 34.7 °F 30.1 in NNE 4.7 mph 6.3 mph 98 % 0 in
04:28 35.2 °F 34.7 °F 30.1 in North 3.4 mph 6 mph 98 % 0 in
04:33 35.2 °F 34.7 °F 30.1 in NE 4 mph 5.8 mph 98 % 0 in
04:38 35.2 °F 34.7 °F 30.1 in NE 2.7 mph 5.4 mph 98 % 0 in
04:43 35.2 °F 34.7 °F 30.1 in NE 3.8 mph 6.3 mph 98 % 0 in
04:48 35.2 °F 34.7 °F 30.1 in NE 4.7 mph 6.3 mph 98 % 0 in
04:53 35.2 °F 34.7 °F 30.1 in NE 2.9 mph 4.9 mph 98 % 0 in
04:59 35.2 °F 34.7 °F 30.1 in NE 3.8 mph 4.9 mph 98 % 0 in
05:04 35.4 °F 34.9 °F 30.1 in ENE 6 mph 6 mph 98 % 0 in
05:09 35.4 °F 34.9 °F 30.1 in NE 4.7 mph 6 mph 98 % 0 in
05:14 35.4 °F 34.9 °F 30.1 in ENE 5.8 mph 5.8 mph 98 % 0 in
05:19 35.4 °F 34.9 °F 30.1 in ENE 3.8 mph 5.8 mph 98 % 0 in
05:24 35.4 °F 34.9 °F 30.1 in NE 2.9 mph 5.8 mph 98 % 0 in
05:29 35.4 °F 34.9 °F 30.1 in NNW 2.2 mph 4.7 mph 98 % 0 in
05:34 35.4 °F 34.9 °F 30.1 in ENE 2.7 mph 4.7 mph 98 % 0 in
05:39 35.4 °F 34.9 °F 30.1 in NE 3.1 mph 3.8 mph 98 % 0 in
05:44 35.2 °F 34.7 °F 30.1 in NE 2.5 mph 3.8 mph 98 % 0 in
05:49 35.2 °F 34.7 °F 30.1 in Calm   4.3 mph 98 % 0 in
05:54 35.2 °F 34.7 °F 30.1 in NE 2.5 mph 4.3 mph 98 % 0 in
05:59 35.4 °F 34.9 °F 30.1 in ENE 2.5 mph 3.8 mph 98 % 0 in
06:04 35.4 °F 34.9 °F 30.1 in Calm   4.3 mph 98 % 0 in
06:09 35.4 °F 34.9 °F 30.1 in NE 3.8 mph 4.3 mph 98 % 0 in
06:14 35.4 °F 34.9 °F 30.1 in NE 3.4 mph 4.5 mph 98 % 0 in
06:19 35.4 °F 34.9 °F 30.1 in NNE 3.1 mph 4.7 mph 98 % 0 in
06:24 35.4 °F 34.9 °F 30.1 in NE 2 mph 4.7 mph 98 % 0 in
06:29 35.4 °F 34.9 °F 30.1 in ENE 2.7 mph 4.5 mph 98 % 0 in
06:34 35.4 °F 34.9 °F 30.1 in ENE 2.2 mph 3.8 mph 98 % 0 in
06:39 35.4 °F 34.9 °F 30.1 in Calm   3.6 mph 98 % 0 in
06:44 35.4 °F 34.9 °F 30.1 in ENE 2.5 mph 3.4 mph 98 % 0 in
06:49 35.4 °F 34.9 °F 30.1 in East 2.5 mph 4.3 mph 98 % 0 in
06:54 35.4 °F 34.9 °F 30.1 in NE 3.4 mph 5.4 mph 98 % 0 in
06:59 35.4 °F 34.9 °F 30.1 in NE 3.4 mph 5.4 mph 98 % 0 in
07:04 35.4 °F 34.9 °F 30.1 in ENE 2.9 mph 4.3 mph 98 % 0 in
07:09 35.4 °F 34.9 °F 30.1 in ENE 3.1 mph 4.9 mph 98 % 0 in
07:14 35.4 °F 35.1 °F 30.1 in NNE 4.3 mph 4.9 mph 98 % 0 in
07:19 35.4 °F 35.1 °F 30.1 in ENE 4 mph 4.3 mph 98 % 0 in
07:24 35.4 °F 35.1 °F 30.1 in East 1.1 mph 4.3 mph 98 % 0 in
07:29 35.4 °F 35.1 °F 30.1 in East 4 mph 4.3 mph 98 % 0 in
07:34 35.4 °F 35.1 °F 30.1 in East 4.3 mph 5.6 mph 98 % 0 in
07:39 35.4 °F 35.1 °F 30.1 in ESE 3.6 mph 5.6 mph 98 % 0 in
07:44 35.4 °F 35.1 °F 30.1 in ESE 4.9 mph 5.6 mph 98 % 0 in
07:49 35.4 °F 35.1 °F 30.1 in ESE 3.8 mph 5.6 mph 98 % 0 in
07:54 35.4 °F 35.1 °F 30.2 in East 4.3 mph 5.4 mph 98 % 0 in
07:59 35.4 °F 35.1 °F 30.2 in East 4 mph 5.4 mph 98 % 0 in
08:04 35.4 °F 35.1 °F 30.2 in East 3.8 mph 5.4 mph 98 % 0 in
08:09 35.4 °F 35.1 °F 30.1 in East 2.7 mph 4 mph 98 % 0 in
08:14 35.4 °F 35.1 °F 30.1 in SE 4.9 mph 6 mph 98 % 0 in
08:19 35.4 °F 35.1 °F 30.1 in ENE 2.5 mph 6 mph 98 % 0 in
08:24 35.4 °F 35.1 °F 30.2 in ENE 3.6 mph 4.3 mph 98 % 0 in
08:30 35.4 °F 35.1 °F 30.2 in NE 3.6 mph 4.3 mph 98 % 0 in
08:35 35.4 °F 35.1 °F 30.2 in East 3.6 mph 4.3 mph 98 % 0 in
08:40 35.4 °F 35.1 °F 30.2 in ENE 1.6 mph 4 mph 98 % 0 in
08:45 35.4 °F 35.1 °F 30.2 in ENE 2.5 mph 5.4 mph 98 % 0 in
08:50 35.4 °F 35.1 °F 30.2 in Calm   5.4 mph 98 % 0 in
08:55 35.8 °F 35.2 °F 30.2 in ESE 3.1 mph 4.3 mph 98 % 0 in
09:00 35.8 °F 35.2 °F 30.2 in ENE 4 mph 4.3 mph 98 % 0 in
09:05 35.8 °F 35.2 °F 30.2 in East 5.4 mph 5.6 mph 98 % 0 in
09:10 35.8 °F 35.2 °F 30.2 in East 4.9 mph 6 mph 98 % 0 in
09:15 35.8 °F 35.2 °F 30.2 in NE 4.9 mph 6 mph 98 % 0 in
09:20 36.1 °F 35.4 °F 30.2 in ENE 4.7 mph 5.6 mph 98 % 0 in
09:25 36.1 °F 35.4 °F 30.2 in ENE 3.8 mph 5.6 mph 98 % 0 in
09:30 36.1 °F 35.8 °F 30.2 in ENE 5.4 mph 5.6 mph 98 % 0 in
09:35 36.1 °F 35.8 °F 30.2 in East 2.9 mph 5.8 mph 98 % 0 in
09:40 36.1 °F 35.8 °F 30.1 in East 2.7 mph 5.8 mph 98 % 0 in
09:45 36.1 °F 35.8 °F 30.1 in NE 5.4 mph 6.3 mph 98 % 0 in
09:50 36.1 °F 35.8 °F 30.1 in East 3.8 mph 6.3 mph 98 % 0 in
09:55 36.1 °F 35.8 °F 30.1 in NE 3.1 mph 6.5 mph 98 % 0 in
10:00 36.7 °F 36.1 °F 30.1 in East 3.8 mph 6.5 mph 98 % 0 in
10:05 36.9 °F 36.3 °F 30.1 in ESE 4 mph 6 mph 98 % 0 in
10:10 36.9 °F 36.3 °F 30.2 in ESE 3.8 mph 6.3 mph 98 % 0 in
10:15 36.9 °F 36.3 °F 30.2 in ESE 4 mph 7.6 mph 98 % 0 in
10:20 36.9 °F 36.3 °F 30.2 in ENE 3.4 mph 7.8 mph 98 % 0 in
10:25 36.9 °F 36.3 °F 30.2 in East 5.6 mph 7.8 mph 98 % 0 in
10:31 36.9 °F 36.3 °F 30.2 in ESE 7.2 mph 7.8 mph 98 % 0 in
10:36 36.9 °F 36.3 °F 30.2 in ESE 6 mph 8.5 mph 98 % 0 in
10:41 37.2 °F 36.9 °F 30.2 in East 5.6 mph 8.5 mph 98 % 0 in
10:46 38.5 °F 37.8 °F 30.2 in East 5.4 mph 8.7 mph 98 % 0 in
10:51 38.5 °F 37.9 °F 30.2 in East 5.6 mph 8.7 mph 98 % 0 in
10:56 38.5 °F 37.8 °F 30.2 in East 4.7 mph 8.7 mph 98 % 0 in
11:01 38.5 °F 37.6 °F 30.2 in ESE 4 mph 7.8 mph 97 % 0 in
11:06 38.5 °F 37.2 °F 30.2 in ESE 7.6 mph 8.7 mph 96 % 0 in
11:11 38.5 °F 37 °F 30.2 in ESE 4 mph 8.7 mph 95 % 0 in
11:16 38.5 °F 37.2 °F 30.2 in East 6 mph 8.1 mph 95 % 0 in
11:21 38.5 °F 37 °F 30.2 in ESE 7.6 mph 8.1 mph 95 % 0 in
11:26 37.9 °F 36.3 °F 30.2 in ESE 7.6 mph 8.7 mph 94 % 0 in
11:31 37.8 °F 36.1 °F 30.2 in ESE 9.4 mph 9.4 mph 94 % 0 in
11:36 37.6 °F 36.1 °F 30.2 in SE 4.9 mph 9.4 mph 94 % 0 in
11:41 37.8 °F 36.5 °F 30.2 in East 3.4 mph 8.7 mph 95 % 0 in
11:46 37.8 °F 36.5 °F 30.2 in ENE 2.7 mph 6.5 mph 95 % 0 in
11:51 37.9 °F 36.7 °F 30.2 in ESE 4 mph 6.5 mph 95 % 0 in
11:56 38.5 °F 37.2 °F 30.2 in ENE 4 mph 8.7 mph 96 % 0 in
12:01 38.5 °F 37 °F 30.2 in East 5.6 mph 8.7 mph 95 % 0 in
12:06 38.1 °F 36.9 °F 30.2 in NE 6.3 mph 7.6 mph 95 % 0 in
12:11 38.1 °F 36.9 °F 30.2 in ENE 4.3 mph 7.6 mph 95 % 0 in
12:16 38.5 °F 37 °F 30.2 in NE 5.8 mph 7.4 mph 95 % 0 in
12:21 38.5 °F 37.2 °F 30.2 in ENE 4.3 mph 8.1 mph 96 % 0 in
12:26 38.5 °F 37 °F 30.2 in ESE 4.9 mph 8.1 mph 95 % 0 in
12:31 38.7 °F 37.8 °F 30.2 in ENE 5.4 mph 8.5 mph 96 % 0 in
12:36 38.7 °F 37.4 °F 30.2 in ENE 4.3 mph 8.5 mph 95 % 0 in
12:41 38.7 °F 37.4 °F 30.2 in ENE 3.4 mph 8.7 mph 95 % 0 in
12:46 38.8 °F 37.6 °F 30.2 in East 4.9 mph 8.7 mph 95 % 0 in
12:51 39 °F 37.6 °F 30.2 in NE 7.8 mph 8.5 mph 94 % 0 in
12:56 39 °F 37.6 °F 30.2 in ENE 6.3 mph 11.2 mph 94 % 0 in
13:01 39 °F 37.2 °F 30.2 in ENE 6.3 mph 11.2 mph 93 % 0 in
13:06 38.8 °F 37 °F 30.2 in ENE 5.8 mph 9.8 mph 93 % 0 in
13:11 39 °F 37.2 °F 30.2 in ENE 8.1 mph 8.7 mph 93 % 0 in
13:16 39.2 °F 37.4 °F 30.2 in NE 5.8 mph 8.7 mph 93 % 0 in
13:21 39.2 °F 37.4 °F 30.2 in East 5.6 mph 9.6 mph 93 % 0 in
13:26 39.4 °F 37.6 °F 30.2 in ENE 7.8 mph 9.6 mph 93 % 0 in
13:31 39.6 °F 37.8 °F 30.2 in East 7.4 mph 10.5 mph 93 % 0 in
13:36 39.7 °F 37.9 °F 30.2 in North 7.8 mph 10.5 mph 93 % 0 in
13:41 39.7 °F 37.9 °F 30.2 in ENE 8.7 mph 10.5 mph 93 % 0 in
13:46 39.9 °F 38.1 °F 30.2 in NE 5.8 mph 10.5 mph 93 % 0 in
13:52 39.9 °F 38.1 °F 30.2 in ENE 7.8 mph 11 mph 93 % 0 in
13:57 40.3 °F 38.7 °F 30.2 in NE 6.5 mph 11 mph 94 % 0 in
14:02 40.5 °F 38.8 °F 30.2 in NE 7.8 mph 10.5 mph 94 % 0 in
14:07 40.5 °F 38.8 °F 30.2 in ENE 7.6 mph 10.1 mph 94 % 0 in
14:12 40.5 °F 38.8 °F 30.1 in East 8.1 mph 10.1 mph 94 % 0 in
14:17 40.5 °F 38.8 °F 30.1 in ENE 9.8 mph 11 mph 94 % 0 in
14:22 40.5 °F 38.8 °F 30.1 in East 10.7 mph 11 mph 94 % 0 in
14:27 40.5 °F 38.8 °F 30.1 in ESE 5.6 mph 11 mph 94 % 0 in
14:32 40.6 °F 39 °F 30.1 in East 8.5 mph 11 mph 94 % 0 in
14:37 40.8 °F 39.2 °F 30.2 in NE 9.8 mph 12.1 mph 94 % 0 in
14:42 40.8 °F 39.2 °F 30.2 in ESE 7.4 mph 12.1 mph 94 % 0 in
14:47 41 °F 39.4 °F 30.2 in ENE 10.1 mph 12.1 mph 94 % 0 in
14:52 41 °F 39.4 °F 30.2 in NE 7.6 mph 12.1 mph 94 % 0 in
14:57 41 °F 39.4 °F 30.2 in ENE 8.5 mph 14.8 mph 94 % 0 in
15:02 41.2 °F 39.6 °F 30.2 in East 5.8 mph 14.8 mph 94 % 0 in
15:07 41.4 °F 39.9 °F 30.2 in East 7.4 mph 12.8 mph 95 % 0 in
15:12 41.7 °F 40.5 °F 30.2 in East 9.8 mph 10.3 mph 95 % 0 in
15:17 42.1 °F 40.6 °F 30.2 in ENE 8.1 mph 10.3 mph 95 % 0 in
15:22 42.3 °F 40.8 °F 30.2 in East 8.9 mph 12.1 mph 95 % 0 in
15:27 42.3 °F 40.8 °F 30.2 in NE 7.6 mph 12.1 mph 95 % 0 in
15:32 42.6 °F 41 °F 30.2 in NE 7.8 mph 13 mph 94 % 0 in
15:37 42.6 °F 41 °F 30.2 in East 10.7 mph 13 mph 94 % 0 in
15:42 43 °F 41.4 °F 30.2 in East 8.1 mph 12.5 mph 94 % 0 in
15:47 43 °F 41.4 °F 30.2 in East 10.5 mph 12.5 mph 94 % 0 in
15:52 42.8 °F 40.8 °F 30.2 in East 7.8 mph 12.5 mph 93 % 0 in
15:57 42.6 °F 40.6 °F 30.2 in East 7.2 mph 12.5 mph 93 % 0 in
16:02 42.6 °F 40.6 °F 30.2 in East 5.8 mph 10.7 mph 93 % 0 in
16:07 42.8 °F 40.8 °F 30.2 in East 8.1 mph 9.4 mph 93 % 0 in
16:12 42.8 °F 41.2 °F 30.2 in NE 10.7 mph 10.7 mph 94 % 0 in
16:17 43 °F 41.4 °F 30.2 in East 8.1 mph 13 mph 94 % 0 in
16:22 43.2 °F 41.5 °F 30.2 in NE 8.7 mph 13 mph 94 % 0 in
16:27 43.2 °F 41.5 °F 30.2 in East 7.4 mph 11 mph 94 % 0 in
16:33 43.2 °F 41.5 °F 30.2 in NE 10.5 mph 11 mph 94 % 0 in
16:38 43.3 °F 41.7 °F 30.2 in East 6.5 mph 10.5 mph 94 % 0 in
16:43 43.5 °F 41.9 °F 30.2 in East 8.5 mph 11.2 mph 94 % 0 in
16:48 43.5 °F 41.9 °F 30.2 in East 7.8 mph 11.2 mph 94 % 0 in
16:53 43.5 °F 41.9 °F 30.2 in ENE 6 mph 10.7 mph 94 % 0 in
16:58 43.5 °F 41.9 °F 30.2 in East 7.2 mph 9.4 mph 94 % 0 in
17:03 43.5 °F 41.9 °F 30.2 in ENE 4.9 mph 9.4 mph 94 % 0 in
17:08 43.5 °F 42.1 °F 30.2 in ENE 5.4 mph 8.1 mph 94 % 0 in
17:13 43.5 °F 42.1 °F 30.2 in East 4.7 mph 8.1 mph 94 % 0 in
17:18 43.5 °F 41.9 °F 30.2 in East 7.6 mph 9.8 mph 94 % 0 in
17:23 43.5 °F 41.9 °F 30.2 in NE 4.9 mph 9.8 mph 94 % 0 in
17:28 43.5 °F 41.9 °F 30.2 in NE 4.9 mph 7.8 mph 94 % 0 in
17:33 43.3 °F 41.7 °F 30.2 in East 5.8 mph 7.8 mph 94 % 0 in
17:38 43 °F 41.4 °F 30.2 in NE 4.3 mph 7.8 mph 94 % 0 in
17:43 42.8 °F 41.2 °F 30.2 in NE 3.1 mph 6.5 mph 94 % 0 in
17:48 42.6 °F 41 °F 30.2 in ENE 3.4 mph 8.5 mph 94 % 0 in
17:53 42.6 °F 41 °F 30.2 in ENE 6.3 mph 8.5 mph 94 % 0 in
17:58 42.6 °F 41 °F 30.2 in ENE 5.8 mph 7.6 mph 94 % 0 in
18:03 42.4 °F 41.2 °F 30.2 in ENE 3.6 mph 7.8 mph 95 % 0 in
18:08 42.4 °F 41.2 °F 30.2 in NE 6.5 mph 7.8 mph 95 % 0 in
18:13 42.4 °F 41.2 °F 30.2 in NE 6 mph 6.7 mph 95 % 0 in
18:18 42.4 °F 41.2 °F 30.2 in East 4.7 mph 8.5 mph 95 % 0 in
18:23 42.4 °F 41.4 °F 30.2 in ENE 7.8 mph 8.5 mph 96 % 0 in
18:28 42.4 °F 41.4 °F 30.2 in ENE 6.5 mph 9.6 mph 96 % 0 in
18:33 42.3 °F 41.2 °F 30.2 in NE 4.9 mph 10.7 mph 96 % 0 in
18:38 42.1 °F 40.6 °F 30.2 in East 4.9 mph 10.7 mph 95 % 0 in
18:43 42.1 °F 41 °F 30.2 in ENE 7.6 mph 9.2 mph 96 % 0 in
18:48 42.1 °F 41 °F 30.2 in ENE 7.4 mph 8.7 mph 96 % 0 in
18:53 41.9 °F 40.8 °F 30.2 in NE 6 mph 8.7 mph 96 % 0 in
18:58 41.9 °F 40.8 °F 30.2 in East 5.4 mph 8.7 mph 96 % 0 in
19:03 41.7 °F 40.6 °F 30.2 in ENE 6.5 mph 10.7 mph 96 % 0 in
19:08 41.7 °F 40.6 °F 30.2 in East 7.4 mph 10.7 mph 96 % 0 in
19:13 41.5 °F 40.5 °F 30.2 in ENE 5.8 mph 8.7 mph 96 % 0 in
19:18 41.5 °F 40.5 °F 30.2 in East 6.7 mph 10.7 mph 96 % 0 in
19:19 41.5 °F 40.5 °F 30.2 in East 7.6 mph 10.7 mph 96 % 0 in
19:24 41.5 °F 40.5 °F 30.2 in NE 8.7 mph 10.7 mph 96 % 0 in
19:29 41.5 °F 40.5 °F 30.2 in ENE 9.6 mph 10.7 mph 96 % 0 in
19:34 41.5 °F 40.5 °F 30.2 in ENE 12.5 mph 13 mph 96 % 0 in
19:39 41.5 °F 40.5 °F 30.2 in East 8.5 mph 13 mph 96 % 0 in
19:44 41.5 °F 40.5 °F 30.2 in ENE 9.8 mph 12.3 mph 96 % 0 in
19:49 41.5 °F 40.3 °F 30.2 in NE 7.8 mph 12.3 mph 95 % 0 in
19:54 41.5 °F 40.3 °F 30.2 in ENE 11.4 mph 13 mph 95 % 0 in
19:59 41.5 °F 40.3 °F 30.2 in ENE 10.3 mph 13 mph 95 % 0 in
20:04 41.4 °F 39.9 °F 30.2 in ENE 8.7 mph 12.1 mph 95 % 0 in
20:09 41.4 °F 39.9 °F 30.2 in ENE 8.7 mph 13.2 mph 95 % 0 in
20:14 41.4 °F 39.9 °F 30.2 in NE 7.6 mph 13.2 mph 95 % 0 in
20:19 41.4 °F 39.9 °F 30.2 in East 7.4 mph 10.5 mph 95 % 0 in
20:24 41.4 °F 39.9 °F 30.2 in East 5.6 mph 10.5 mph 95 % 0 in
20:29 41.2 °F 39.7 °F 30.2 in ENE 7.8 mph 10.5 mph 95 % 0 in
20:34 41.2 °F 39.7 °F 30.2 in NE 9.4 mph 10.7 mph 95 % 0 in
20:39 41.2 °F 39.7 °F 30.2 in East 7.8 mph 10.7 mph 95 % 0 in
20:44 41 °F 39.7 °F 30.2 in ENE 9.8 mph 9.8 mph 95 % 0 in
20:49 41 °F 39.7 °F 30.2 in NE 8.5 mph 10.5 mph 95 % 0 in
20:54 41 °F 39.7 °F 30.2 in ENE 8.5 mph 10.5 mph 95 % 0 in
20:59 41 °F 39.7 °F 30.2 in ENE 3.1 mph 10.5 mph 95 % 0 in
21:04 40.8 °F 39.6 °F 30.2 in NNE 8.9 mph 9.2 mph 95 % 0 in
21:09 40.8 °F 39.6 °F 30.2 in ENE 7.6 mph 8.9 mph 95 % 0 in
21:14 40.8 °F 39.6 °F 30.2 in East 7.6 mph 10.5 mph 95 % 0 in
21:19 40.8 °F 39.6 °F 30.2 in East 6.5 mph 10.5 mph 95 % 0 in
21:24 40.8 °F 39.6 °F 30.2 in East 5.4 mph 8.7 mph 95 % 0 in
21:29 40.8 °F 39.6 °F 30.2 in NE 10.1 mph 10.1 mph 95 % 0 in
21:34 40.8 °F 39.6 °F 30.2 in ENE 7.4 mph 10.1 mph 95 % 0 in
21:39 40.6 °F 39.6 °F 30.2 in ENE 9.2 mph 9.2 mph 96 % 0 in
21:44 40.6 °F 39.6 °F 30.2 in ENE 5.8 mph 9.2 mph 96 % 0 in
21:49 40.6 °F 39.6 °F 30.2 in East 3.8 mph 8.9 mph 96 % 0 in
21:54 40.5 °F 39 °F 30.2 in ENE 6 mph 8.5 mph 95 % 0 in
21:59 40.5 °F 39 °F 30.2 in East 8.1 mph 8.5 mph 95 % 0 in
22:04 40.3 °F 39 °F 30.2 in ENE 7.4 mph 8.7 mph 95 % 0 in
22:09 40.1 °F 38.8 °F 30.2 in ENE 5.4 mph 8.7 mph 95 % 0 in
22:14 40.1 °F 39 °F 30.2 in NE 8.7 mph 9.2 mph 96 % 0 in
22:19 40.3 °F 39.2 °F 30.2 in ENE 8.7 mph 9.6 mph 96 % 0 in
22:24 40.1 °F 39 °F 30.2 in ENE 5.4 mph 9.6 mph 96 % 0 in
22:29 40.1 °F 39 °F 30.2 in ENE 4.3 mph 8.9 mph 96 % 0 in
22:35 40.1 °F 39 °F 30.2 in ENE 4.9 mph 7.8 mph 96 % 0 in
22:40 40.1 °F 39 °F 30.2 in ENE 5.6 mph 8.5 mph 96 % 0 in
22:45 39.9 °F 38.8 °F 30.2 in NE 4 mph 8.9 mph 96 % 0 in
22:50 39.7 °F 38.7 °F 30.2 in East 5.4 mph 8.9 mph 96 % 0 in
22:55 39.7 °F 38.7 °F 30.2 in ENE 5.8 mph 8.1 mph 96 % 0 in
23:00 39.6 °F 38.5 °F 30.2 in East 5.4 mph 8.1 mph 96 % 0 in
23:05 39.4 °F 38.5 °F 30.2 in ENE 5.4 mph 7.4 mph 96 % 0 in
23:10 39.4 °F 38.5 °F 30.2 in NE 4.7 mph 8.1 mph 96 % 0 in
23:15 39.4 °F 38.5 °F 30.2 in East 4 mph 8.1 mph 96 % 0 in
23:20 39.2 °F 38.1 °F 30.2 in ENE 5.4 mph 7.2 mph 96 % 0 in
23:25 39.4 °F 38.5 °F 30.2 in East 4.9 mph 7.6 mph 96 % 0 in
23:30 39.4 °F 38.5 °F 30.2 in East 4.9 mph 8.1 mph 96 % 0 in
23:35 39.4 °F 38.5 °F 30.2 in ENE 4.3 mph 8.1 mph 96 % 0 in
23:40 39.4 °F 38.5 °F 30.2 in NE 4.9 mph 7.8 mph 96 % 0 in
23:45 39.4 °F 38.5 °F 30.2 in ENE 5.8 mph 7.6 mph 96 % 0 in
23:50 39.4 °F 38.5 °F 30.2 in NE 3.6 mph 7.6 mph 96 % 0 in
23:55 39.4 °F 38.5 °F 30.2 in ENE 4.9 mph 8.7 mph 96 % 0 in
Le Gheer Warneton
Courtoisie de Weather Underground - 2.25 mb

Mise a jour : 16-12-17 12:12:11
Généré par Cumulus 1.9.4 (1099)